sensor_id;sensor_type;location;lat;lon;timestamp;pressure;altitude;pressure_sealevel;temperature;humidity
29879;BME280;16752;53.364;-1.488;2022-09-06T00:01:06;100272.84;;;24.16;50.43
29879;BME280;16752;53.364;-1.488;2022-09-06T00:03:34;100274.69;;;24.15;50.73
29879;BME280;16752;53.364;-1.488;2022-09-06T00:06:26;100253.38;;;24.07;50.77
29879;BME280;16752;53.364;-1.488;2022-09-06T00:08:58;100250.44;;;24.02;50.88
29879;BME280;16752;53.364;-1.488;2022-09-06T01:05:20;100111.25;;;23.95;50.80
29879;BME280;16752;53.364;-1.488;2022-09-06T01:08:07;100100.50;;;23.89;50.75
29879;BME280;16752;53.364;-1.488;2022-09-06T02:26:16;100144.59;;;23.71;51.42
29879;BME280;16752;53.364;-1.488;2022-09-06T02:28:58;100137.78;;;23.69;51.25
29879;BME280;16752;53.364;-1.488;2022-09-06T02:31:39;100139.28;;;23.57;51.33
29879;BME280;16752;53.364;-1.488;2022-09-06T02:34:15;100145.28;;;23.59;51.51
29879;BME280;16752;53.364;-1.488;2022-09-06T02:36:48;100144.69;;;23.63;51.26
29879;BME280;16752;53.364;-1.488;2022-09-06T02:39:29;100139.00;;;23.66;51.54
29879;BME280;16752;53.364;-1.488;2022-09-06T02:42:11;100137.34;;;23.65;51.26
29879;BME280;16752;53.364;-1.488;2022-09-06T02:44:45;100131.06;;;23.58;51.51
29879;BME280;16752;53.364;-1.488;2022-09-06T02:47:17;100132.09;;;23.57;51.37
29879;BME280;16752;53.364;-1.488;2022-09-06T02:49:50;100133.75;;;23.58;51.28
29879;BME280;16752;53.364;-1.488;2022-09-06T02:52:22;100132.25;;;23.70;51.24
29879;BME280;16752;53.364;-1.488;2022-09-06T02:54:56;100136.38;;;23.73;51.11
29879;BME280;16752;53.364;-1.488;2022-09-06T02:57:26;100134.53;;;23.73;51.21
29879;BME280;16752;53.364;-1.488;2022-09-06T03:00:03;100128.41;;;23.80;51.06
29879;BME280;16752;53.364;-1.488;2022-09-06T03:02:35;100129.19;;;23.73;51.04
29879;BME280;16752;53.364;-1.488;2022-09-06T03:05:07;100123.63;;;23.75;51.03
29879;BME280;16752;53.364;-1.488;2022-09-06T03:07:39;100123.81;;;23.73;51.00
29879;BME280;16752;53.364;-1.488;2022-09-06T03:10:10;100111.41;;;23.66;50.91
29879;BME280;16752;53.364;-1.488;2022-09-06T03:12:44;100107.44;;;23.62;50.83
29879;BME280;16752;53.364;-1.488;2022-09-06T03:15:16;100108.19;;;23.56;50.93
29879;BME280;16752;53.364;-1.488;2022-09-06T03:17:47;100101.38;;;23.53;51.02
29879;BME280;16752;53.364;-1.488;2022-09-06T03:20:19;100095.59;;;23.50;50.79
29879;BME280;16752;53.364;-1.488;2022-09-06T03:22:51;100098.84;;;23.45;51.09
29879;BME280;16752;53.364;-1.488;2022-09-06T03:25:22;100104.38;;;23.43;51.22
29879;BME280;16752;53.364;-1.488;2022-09-06T03:27:54;100104.63;;;23.48;51.13
29879;BME280;16752;53.364;-1.488;2022-09-06T03:30:26;100105.47;;;23.49;51.46
29879;BME280;16752;53.364;-1.488;2022-09-06T03:32:58;100117.44;;;23.53;51.29
29879;BME280;16752;53.364;-1.488;2022-09-06T03:35:31;100118.97;;;23.62;51.14
29879;BME280;16752;53.364;-1.488;2022-09-06T03:38:03;100116.97;;;23.64;51.22
29879;BME280;16752;53.364;-1.488;2022-09-06T03:40:35;100123.59;;;23.68;51.75
29879;BME280;16752;53.364;-1.488;2022-09-06T03:43:07;100118.88;;;23.70;51.34
29879;BME280;16752;53.364;-1.488;2022-09-06T03:45:39;100117.66;;;23.73;51.21
29879;BME280;16752;53.364;-1.488;2022-09-06T03:48:16;100103.00;;;23.69;51.38
29879;BME280;16752;53.364;-1.488;2022-09-06T03:50:50;100102.38;;;23.67;51.14
29879;BME280;16752;53.364;-1.488;2022-09-06T03:53:23;100108.28;;;23.62;51.19
29879;BME280;16752;53.364;-1.488;2022-09-06T03:55:56;100114.44;;;23.63;51.26
29879;BME280;16752;53.364;-1.488;2022-09-06T03:58:30;100112.59;;;23.63;51.10
29879;BME280;16752;53.364;-1.488;2022-09-06T04:01:03;100118.63;;;23.65;51.32
29879;BME280;16752;53.364;-1.488;2022-09-06T04:03:36;100120.72;;;23.70;51.48
29879;BME280;16752;53.364;-1.488;2022-09-06T04:06:07;100110.66;;;23.72;51.28
29879;BME280;16752;53.364;-1.488;2022-09-06T04:08:39;100107.59;;;23.75;51.31
29879;BME280;16752;53.364;-1.488;2022-09-06T04:11:11;100106.75;;;23.74;51.41
29879;BME280;16752;53.364;-1.488;2022-09-06T04:13:44;100105.09;;;23.73;51.25
29879;BME280;16752;53.364;-1.488;2022-09-06T04:16:16;100102.03;;;23.76;51.22
29879;BME280;16752;53.364;-1.488;2022-09-06T04:18:48;100097.31;;;23.78;51.16
29879;BME280;16752;53.364;-1.488;2022-09-06T04:21:22;100091.97;;;23.78;51.30
29879;BME280;16752;53.364;-1.488;2022-09-06T04:23:54;100088.72;;;23.83;51.25
29879;BME280;16752;53.364;-1.488;2022-09-06T04:26:25;100089.19;;;23.87;51.27
29879;BME280;16752;53.364;-1.488;2022-09-06T04:29:03;100085.69;;;23.86;51.37
29879;BME280;16752;53.364;-1.488;2022-09-06T04:31:35;100085.69;;;23.86;51.19
29879;BME280;16752;53.364;-1.488;2022-09-06T04:34:07;100085.47;;;23.88;51.31
29879;BME280;16752;53.364;-1.488;2022-09-06T04:36:39;100083.81;;;23.87;51.33
29879;BME280;16752;53.364;-1.488;2022-09-06T04:39:11;100089.63;;;23.90;51.28
29879;BME280;16752;53.364;-1.488;2022-09-06T04:41:43;100070.56;;;23.78;51.15
29879;BME280;16752;53.364;-1.488;2022-09-06T04:44:15;100086.09;;;23.90;51.14
29879;BME280;16752;53.364;-1.488;2022-09-06T04:46:47;100085.09;;;23.91;51.23
29879;BME280;16752;53.364;-1.488;2022-09-06T04:49:19;100083.44;;;23.90;51.35
29879;BME280;16752;53.364;-1.488;2022-09-06T04:51:52;100076.44;;;23.89;51.06
29879;BME280;16752;53.364;-1.488;2022-09-06T04:54:23;100078.09;;;23.90;51.09
29879;BME280;16752;53.364;-1.488;2022-09-06T04:56:55;100080.56;;;23.91;51.29
29879;BME280;16752;53.364;-1.488;2022-09-06T04:59:26;100083.00;;;23.86;51.41
29879;BME280;16752;53.364;-1.488;2022-09-06T05:01:58;100088.16;;;23.88;51.27
29879;BME280;16752;53.364;-1.488;2022-09-06T05:04:30;100079.31;;;23.87;51.23
29879;BME280;16752;53.364;-1.488;2022-09-06T05:07:00;100087.50;;;23.86;51.39
29879;BME280;16752;53.364;-1.488;2022-09-06T05:09:33;100077.06;;;23.91;51.39
29879;BME280;16752;53.364;-1.488;2022-09-06T05:12:05;100068.63;;;23.94;51.33
29879;BME280;16752;53.364;-1.488;2022-09-06T05:14:36;100053.84;;;23.98;51.32
29879;BME280;16752;53.364;-1.488;2022-09-06T05:17:08;100052.34;;;23.89;51.34
29879;BME280;16752;53.364;-1.488;2022-09-06T05:19:42;100046.81;;;23.90;51.29
29879;BME280;16752;53.364;-1.488;2022-09-06T05:22:12;100053.59;;;23.93;51.30
29879;BME280;16752;53.364;-1.488;2022-09-06T05:24:43;100056.28;;;23.93;51.19
29879;BME280;16752;53.364;-1.488;2022-09-06T05:27:16;100060.63;;;23.94;51.19
29879;BME280;16752;53.364;-1.488;2022-09-06T05:29:47;100066.59;;;23.96;51.42
29879;BME280;16752;53.364;-1.488;2022-09-06T05:32:20;100069.28;;;23.96;50.92
29879;BME280;16752;53.364;-1.488;2022-09-06T05:34:52;100066.16;;;23.92;51.19
29879;BME280;16752;53.364;-1.488;2022-09-06T05:37:23;100081.31;;;23.85;51.20
29879;BME280;16752;53.364;-1.488;2022-09-06T05:39:55;100067.81;;;23.93;50.90
29879;BME280;16752;53.364;-1.488;2022-09-06T05:42:28;100067.63;;;23.95;51.00
29879;BME280;16752;53.364;-1.488;2022-09-06T05:45:01;100067.22;;;23.98;51.11
29879;BME280;16752;53.364;-1.488;2022-09-06T05:47:33;100064.16;;;24.01;50.92
29879;BME280;16752;53.364;-1.488;2022-09-06T05:50:05;100058.81;;;24.01;51.15
29879;BME280;16752;53.364;-1.488;2022-09-06T05:52:38;100053.06;;;24.04;51.12
29879;BME280;16752;53.364;-1.488;2022-09-06T05:55:10;100054.72;;;24.05;51.20
29879;BME280;16752;53.364;-1.488;2022-09-06T05:57:42;100047.56;;;24.12;51.20
29879;BME280;16752;53.364;-1.488;2022-09-06T06:00:14;100052.31;;;24.17;51.11
29879;BME280;16752;53.364;-1.488;2022-09-06T06:02:49;100053.59;;;24.21;51.17
29879;BME280;16752;53.364;-1.488;2022-09-06T06:05:21;100050.94;;;24.27;51.08
29879;BME280;16752;53.364;-1.488;2022-09-06T06:07:52;100042.91;;;24.27;51.25
29879;BME280;16752;53.364;-1.488;2022-09-06T06:10:26;100038.78;;;24.25;51.02
29879;BME280;16752;53.364;-1.488;2022-09-06T06:12:58;100040.78;;;24.16;51.17
29879;BME280;16752;53.364;-1.488;2022-09-06T06:15:30;100046.75;;;24.12;51.37
29879;BME280;16752;53.364;-1.488;2022-09-06T06:18:02;100046.53;;;24.13;51.32
29879;BME280;16752;53.364;-1.488;2022-09-06T06:20:33;100041.81;;;24.15;51.36
29879;BME280;16752;53.364;-1.488;2022-09-06T06:23:05;100043.69;;;24.21;51.11
29879;BME280;16752;53.364;-1.488;2022-09-06T06:25:46;100042.28;;;24.25;51.34
29879;BME280;16752;53.364;-1.488;2022-09-06T06:28:28;100050.06;;;24.20;51.49
29879;BME280;16752;53.364;-1.488;2022-09-06T06:31:01;100040.81;;;24.23;51.35
29879;BME280;16752;53.364;-1.488;2022-09-06T06:33:39;100028.78;;;24.33;51.28
29879;BME280;16752;53.364;-1.488;2022-09-06T06:38:44;100032.19;;;24.27;51.15
29879;BME280;16752;53.364;-1.488;2022-09-06T06:41:20;100043.94;;;24.26;51.08
29879;BME280;16752;53.364;-1.488;2022-09-06T06:44:14;100043.41;;;24.31;51.19
29879;BME280;16752;53.364;-1.488;2022-09-06T06:46:47;100048.03;;;24.22;51.07
29879;BME280;16752;53.364;-1.488;2022-09-06T06:49:19;100038.06;;;24.37;51.03
29879;BME280;16752;53.364;-1.488;2022-09-06T06:51:50;100033.94;;;24.35;51.17
29879;BME280;16752;53.364;-1.488;2022-09-06T06:54:29;100032.09;;;24.42;51.07
29879;BME280;16752;53.364;-1.488;2022-09-06T06:57:35;100025.94;;;24.42;51.13
29879;BME280;16752;53.364;-1.488;2022-09-06T07:00:11;100022.09;;;24.57;50.90
29879;BME280;16752;53.364;-1.488;2022-09-06T11:11:05;99931.94;;;25.37;51.11
29879;BME280;16752;53.364;-1.488;2022-09-06T11:13:37;99935.88;;;25.28;51.22
29879;BME280;16752;53.364;-1.488;2022-09-06T11:30:56;99931.75;;;26.30;50.93
29879;BME280;16752;53.364;-1.488;2022-09-06T11:33:23;99928.38;;;26.54;49.82
29879;BME280;16752;53.364;-1.488;2022-09-06T12:15:43;99874.53;;;27.67;45.88
29879;BME280;16752;53.364;-1.488;2022-09-06T12:21:56;99864.78;;;27.48;43.72
29879;BME280;16752;53.364;-1.488;2022-09-06T12:25:14;99864.59;;;27.67;44.10
29879;BME280;16752;53.364;-1.488;2022-09-06T12:33:45;99858.06;;;27.93;44.27
29879;BME280;16752;53.364;-1.488;2022-09-06T12:36:27;99847.59;;;28.04;45.01
29879;BME280;16752;53.364;-1.488;2022-09-06T12:39:14;99857.63;;;27.60;40.88
29879;BME280;16752;53.364;-1.488;2022-09-06T12:41:41;99845.53;;;27.69;42.47
29879;BME280;16752;53.364;-1.488;2022-09-06T12:44:07;99849.31;;;27.61;42.96
29879;BME280;16752;53.364;-1.488;2022-09-06T12:46:33;99838.94;;;27.65;42.79
29879;BME280;16752;53.364;-1.488;2022-09-06T12:49:07;99840.13;;;27.69;43.07
29879;BME280;16752;53.364;-1.488;2022-09-06T12:51:33;99846.88;;;27.78;43.12
29879;BME280;16752;53.364;-1.488;2022-09-06T12:54:00;99840.59;;;27.66;43.40
29879;BME280;16752;53.364;-1.488;2022-09-06T12:56:41;99837.59;;;27.74;42.43
29879;BME280;16752;53.364;-1.488;2022-09-06T13:05:41;99838.53;;;28.88;41.14
29879;BME280;16752;53.364;-1.488;2022-09-06T13:13:46;99820.69;;;29.57;36.78
29879;BME280;16752;53.364;-1.488;2022-09-06T13:16:26;99809.34;;;29.84;37.47
29879;BME280;16752;53.364;-1.488;2022-09-06T13:21:56;99809.91;;;28.99;37.06
29879;BME280;16752;53.364;-1.488;2022-09-06T13:27:47;99793.38;;;29.30;36.49
29879;BME280;16752;53.364;-1.488;2022-09-06T13:35:39;99784.03;;;29.73;36.19
29879;BME280;16752;53.364;-1.488;2022-09-06T13:38:18;99779.88;;;29.82;35.29
29879;BME280;16752;53.364;-1.488;2022-09-06T13:40:43;99776.81;;;29.50;35.19
29879;BME280;16752;53.364;-1.488;2022-09-06T13:43:27;99782.59;;;29.70;35.45
29879;BME280;16752;53.364;-1.488;2022-09-06T13:46:10;99770.00;;;30.16;36.39
29879;BME280;16752;53.364;-1.488;2022-09-06T14:25:37;99752.91;;;29.99;30.09
29879;BME280;16752;53.364;-1.488;2022-09-06T14:37:14;99751.41;;;30.36;31.24
29879;BME280;16752;53.364;-1.488;2022-09-06T14:43:26;99740.97;;;29.95;30.43
29879;BME280;16752;53.364;-1.488;2022-09-06T15:38:00;99671.63;;;32.78;27.11
29879;BME280;16752;53.364;-1.488;2022-09-06T16:39:36;99624.06;;;29.09;32.91
29879;BME280;16752;53.364;-1.488;2022-09-06T17:42:51;99616.25;;;28.72;34.63
